Time;durP1;ratioP1;P1;durP2;ratioP2;P2;SDS_P1;SDS_P2;PMS_P1;PMS_P2;Temp;Humidity;BMP_temperature;BMP_pressure;BME280_temperature;BME280_humidity;BME280_pressure;Samples;Min_cycle;Max_cycle;Signal;HPM_P1;HPM_P2
2022/01/26 00:07:14;;;;;;;96.78;52.40;;;0.90;2201.60;;;;;;5031197;28;20508;-72
2022/01/26 00:09:40;;;;;;;85.63;46.55;;;0.90;2201.60;;;;;;5031337;28;20033;-71
2022/01/26 00:12:06;;;;;;;104.95;57.28;;;0.90;2201.60;;;;;;5030894;28;20108;-74
2022/01/26 00:14:32;;;;;;;119.60;61.28;;;25.60;2201.60;;;;;;5029965;28;20472;-73
2022/01/26 00:17:01;;;;;;;85.10;43.50;;;0.90;2201.60;;;;;;5030439;28;20144;-72
2022/01/26 00:19:42;;;;;;;75.20;42.00;;;0.90;2201.60;;;;;;5030019;28;20029;-74
2022/01/26 00:22:07;;;;;;;74.85;42.13;;;0.90;2201.60;;;;;;5030375;28;20043;-73
2022/01/26 00:27:21;;;;;;;62.10;36.85;;;0.90;2201.60;;;;;;5031298;28;20087;-73
2022/01/26 00:29:58;;;;;;;68.28;38.05;;;0.80;2201.60;;;;;;5031518;28;20021;-74
2022/01/26 00:40:43;;;;;;;85.97;47.55;;;0.80;2201.60;;;;;;5035560;28;20037;-73
2022/01/26 00:43:23;;;;;;;91.90;51.10;;;0.80;2201.60;;;;;;5033390;28;20921;-73
2022/01/26 00:45:55;;;;;;;102.00;55.17;;;0.80;2201.60;;;;;;5034639;28;20025;-73
2022/01/26 00:48:21;;;;;;;101.47;54.40;;;0.90;2201.60;;;;;;5029439;28;20025;-73
2022/01/26 00:50:51;;;;;;;93.10;51.55;;;0.90;2201.60;;;;;;5034406;28;20022;-72
2022/01/26 00:53:25;;;;;;;90.70;49.10;;;0.90;2201.60;;;;;;5033476;28;20023;-73
2022/01/26 00:55:51;;;;;;;69.38;41.97;;;0.90;2201.60;;;;;;5034346;28;20026;-73
2022/01/26 00:58:17;;;;;;;82.88;44.35;;;0.90;2201.60;;;;;;5033252;28;20025;-72
2022/01/26 01:00:43;;;;;;;75.97;42.95;;;25.60;2201.60;;;;;;5034279;28;20029;-71
2022/01/26 01:03:09;;;;;;;94.18;48.60;;;25.60;2201.60;;;;;;5034503;28;20025;-73
2022/01/26 01:05:57;;;;;;;98.38;50.92;;;25.60;2201.60;;;;;;5034500;28;20036;-73
2022/01/26 01:08:23;;;;;;;86.20;44.85;;;25.60;2201.60;;;;;;5032565;28;20041;-75
2022/01/26 01:10:52;;;;;;;96.78;55.47;;;25.60;2201.60;;;;;;5034552;28;20021;-74
2022/01/26 01:13:21;;;;;;;80.68;45.35;;;25.60;2201.60;;;;;;5032440;28;20036;-72
2022/01/26 01:15:49;;;;;;;70.45;36.47;;;25.60;2201.60;;;;;;5032772;28;20053;-74
2022/01/26 01:21:05;;;;;;;67.80;41.42;;;25.60;2201.60;;;;;;5034029;28;20036;-74
2022/01/26 01:26:21;;;;;;;55.72;34.05;;;25.70;2201.60;;;;;;5022775;28;20033;-74
2022/01/26 01:34:06;;;;;;;58.10;30.15;;;25.80;2201.60;;;;;;5014268;28;20018;-72
2022/01/26 01:36:33;;;;;;;52.30;30.88;;;25.80;2201.60;;;;;;5013814;28;20057;-73
2022/01/26 01:38:59;;;;;;;53.67;28.65;;;25.80;2201.60;;;;;;5045505;28;20036;-73
2022/01/26 01:41:25;;;;;;;50.90;27.85;;;25.80;2201.60;;;;;;5013561;28;20038;-73
2022/01/26 01:43:50;;;;;;;48.13;29.05;;;25.80;2201.60;;;;;;5029333;28;20032;-72
2022/01/26 01:46:16;;;;;;;51.20;27.92;;;25.80;2201.60;;;;;;5032250;28;20120;-72
2022/01/26 01:48:42;;;;;;;56.50;29.80;;;25.90;2201.60;;;;;;5031841;28;20030;-73
2022/01/26 01:51:11;;;;;;;54.28;30.65;;;25.90;2201.60;;;;;;5032279;28;20025;-73
2022/01/26 01:53:42;;;;;;;44.13;26.45;;;25.90;2201.60;;;;;;5032911;28;20014;-75
2022/01/26 01:56:13;;;;;;;47.03;28.20;;;26.00;2201.60;;;;;;5033269;28;20017;-75
2022/01/26 01:58:40;;;;;;;47.22;26.50;;;25.90;2201.60;;;;;;5044349;28;20029;-74
2022/01/26 02:01:07;;;;;;;45.33;26.05;;;25.90;2201.60;;;;;;5053398;28;20066;-74
2022/01/26 02:03:33;;;;;;;44.15;27.55;;;26.00;2201.60;;;;;;5048577;28;20025;-72
2022/01/26 02:05:59;;;;;;;45.85;26.58;;;25.90;2201.60;;;;;;5033229;28;20171;-73
2022/01/26 02:08:25;;;;;;;47.13;26.52;;;25.90;2201.60;;;;;;5032604;28;20057;-73
2022/01/26 02:10:51;;;;;;;44.50;26.80;;;25.90;2201.60;;;;;;5032141;28;20033;-73
2022/01/26 02:15:51;;;;;;;46.92;27.00;;;26.00;2201.60;;;;;;5033044;28;20028;-73
2022/01/26 02:53:55;;;;;;;49.70;28.10;;;26.10;2201.60;;;;;;5032136;28;20018;-74
2022/01/26 02:59:13;;;;;;;48.40;27.30;;;26.10;2201.60;;;;;;5031927;28;20021;-73
2022/01/26 03:07:01;;;;;;;47.55;26.00;;;26.10;2201.60;;;;;;5032540;28;20547;-73
2022/01/26 03:09:32;;;;;;;47.58;26.88;;;26.10;2201.60;;;;;;5031845;28;20103;-73
2022/01/26 03:12:00;;;;;;;49.83;30.67;;;26.10;2201.60;;;;;;5032295;28;20373;-73
2022/01/26 03:17:10;;;;;;;42.55;26.23;;;26.10;2201.60;;;;;;5032424;28;20539;-72
2022/01/26 03:19:44;;;;;;;42.78;27.38;;;26.10;2201.60;;;;;;5032214;28;20025;-73
2022/01/26 03:30:30;;;;;;;42.22;25.58;;;26.20;2201.60;;;;;;5031251;28;20048;-72
2022/01/26 03:35:56;;;;;;;45.78;26.02;;;26.30;2201.60;;;;;;5029427;28;20049;-72
2022/01/26 03:38:38;;;;;;;42.25;25.90;;;26.30;2201.60;;;;;;5029409;28;20033;-73
2022/01/26 03:43:47;;;;;;;45.10;27.35;;;26.30;2201.60;;;;;;5028774;28;20029;-73
2022/01/26 03:46:13;;;;;;;50.78;28.38;;;26.20;2201.60;;;;;;5028992;28;20029;-72
2022/01/26 03:48:39;;;;;;;44.35;27.13;;;26.30;2201.60;;;;;;5028863;28;20116;-73
2022/01/26 03:51:05;;;;;;;47.85;28.33;;;26.30;2201.60;;;;;;5029098;28;20033;-73
2022/01/26 03:53:31;;;;;;;51.67;28.35;;;26.30;2201.60;;;;;;5028753;28;20026;-72
2022/01/26 03:55:57;;;;;;;48.33;27.45;;;26.30;2201.60;;;;;;5029368;28;20140;-72
2022/01/26 03:58:22;;;;;;;47.67;26.15;;;26.30;2201.60;;;;;;5028663;28;20030;-72
2022/01/26 04:00:48;;;;;;;52.47;28.00;;;26.30;2201.60;;;;;;5029050;28;20026;-72
2022/01/26 04:03:14;;;;;;;50.63;28.17;;;26.30;2201.60;;;;;;5029084;28;20496;-72
2022/01/26 04:05:39;;;;;;;48.08;29.35;;;26.40;2201.60;;;;;;5029378;28;20447;-72
2022/01/26 04:08:12;;;;;;;47.92;27.20;;;26.30;2201.60;;;;;;5030109;28;20059;-73
2022/01/26 04:11:00;;;;;;;43.30;26.20;;;26.30;2201.60;;;;;;5032885;28;20046;-74
2022/01/26 04:13:26;;;;;;;51.20;29.85;;;26.30;2201.60;;;;;;5034877;28;20525;-73
2022/01/26 04:15:52;;;;;;;45.00;27.50;;;26.30;2201.60;;;;;;5033165;28;20159;-73
2022/01/26 04:18:23;;;;;;;54.45;27.90;;;26.30;2201.60;;;;;;5033545;28;20485;-73
2022/01/26 04:20:53;;;;;;;47.15;27.70;;;26.30;2201.60;;;;;;5033165;28;20026;-73
2022/01/26 04:23:34;;;;;;;46.60;26.85;;;26.30;2201.60;;;;;;5034463;28;20151;-73
2022/01/26 04:26:00;;;;;;;51.40;27.95;;;26.40;2201.60;;;;;;5031914;28;20108;-74
2022/01/26 04:28:32;;;;;;;53.53;28.25;;;26.40;2201.60;;;;;;5033359;28;20033;-72
2022/01/26 04:30:58;;;;;;;47.58;28.92;;;26.40;2201.60;;;;;;5031745;28;20111;-73
2022/01/26 04:33:24;;;;;;;48.97;29.50;;;26.40;2201.60;;;;;;5034589;28;20045;-73
2022/01/26 04:35:50;;;;;;;47.58;28.40;;;26.40;2201.60;;;;;;5033339;28;20149;-74
2022/01/26 04:38:22;;;;;;;48.17;28.38;;;26.50;2201.60;;;;;;5033694;28;20029;-73
2022/01/26 04:41:03;;;;;;;44.65;28.02;;;26.50;2201.60;;;;;;5034660;28;20101;-73
2022/01/26 04:43:33;;;;;;;47.10;27.73;;;26.40;2201.60;;;;;;5034853;28;20373;-73
2022/01/26 04:45:58;;;;;;;50.20;29.17;;;26.40;2201.60;;;;;;5034416;28;20128;-74
2022/01/26 04:48:26;;;;;;;49.70;28.85;;;26.40;2201.60;;;;;;5026914;28;20108;-75
2022/01/26 04:50:52;;;;;;;47.50;28.58;;;26.40;2201.60;;;;;;5033259;28;20083;-73
2022/01/26 04:53:19;;;;;;;52.70;30.33;;;26.40;2201.60;;;;;;5032292;28;20496;-73
2022/01/26 04:55:45;;;;;;;52.45;29.83;;;26.40;2201.60;;;;;;5033464;28;20113;-73
2022/01/26 04:58:11;;;;;;;59.33;30.00;;;26.40;2201.60;;;;;;5034178;28;20583;-73
2022/01/26 05:00:37;;;;;;;49.80;30.83;;;26.40;2201.60;;;;;;5033320;28;20018;-73
2022/01/26 05:03:02;;;;;;;56.75;30.35;;;26.40;2201.60;;;;;;5032997;28;20152;-73
2022/01/26 05:05:28;;;;;;;62.45;32.58;;;26.40;2201.60;;;;;;5033312;28;20112;-73
2022/01/26 05:07:54;;;;;;;47.33;29.33;;;26.40;2201.60;;;;;;5032050;28;20045;-73
2022/01/26 05:10:20;;;;;;;56.40;30.15;;;26.40;2201.60;;;;;;5033924;28;20052;-73
2022/01/26 05:12:46;;;;;;;51.00;28.50;;;26.50;2201.60;;;;;;5032580;28;20025;-73
2022/01/26 05:15:12;;;;;;;53.83;29.40;;;26.50;2201.60;;;;;;5034028;28;20029;-73
2022/01/26 05:17:40;;;;;;;51.30;31.48;;;26.50;2201.60;;;;;;5032631;28;20480;-73
2022/01/26 05:20:08;;;;;;;54.08;32.10;;;51.20;2227.20;;;;;;5032631;28;20476;-73
2022/01/26 05:22:34;;;;;;;61.92;35.90;;;51.20;2227.20;;;;;;5032867;28;20025;-74
2022/01/26 05:25:00;;;;;;;63.15;35.88;;;51.20;2227.20;;;;;;5033483;28;20067;-75
2022/01/26 05:27:26;;;;;;;58.58;33.08;;;51.20;2227.20;;;;;;5032782;28;20033;-73
2022/01/26 05:29:52;;;;;;;59.00;32.97;;;51.20;2227.20;;;;;;5031445;28;20072;-75
2022/01/26 05:32:19;;;;;;;56.85;33.72;;;51.20;2227.20;;;;;;5031874;28;20022;-74
2022/01/26 05:34:45;;;;;;;56.30;33.10;;;51.20;2227.20;;;;;;5032905;28;20014;-74
2022/01/26 05:37:11;;;;;;;60.00;35.17;;;51.20;2227.20;;;;;;5032445;28;20037;-74
2022/01/26 05:39:38;;;;;;;187.55;108.50;;;51.20;2227.20;;;;;;5032307;28;20080;-73
2022/01/26 05:42:05;;;;;;;81.18;45.10;;;51.20;2227.20;;;;;;5032835;28;20061;-74
2022/01/26 05:44:31;;;;;;;66.22;39.20;;;51.20;2227.20;;;;;;5048940;28;20029;-74
2022/01/26 05:46:57;;;;;;;78.78;42.10;;;26.50;2201.60;;;;;;5032118;28;20083;-74
2022/01/26 05:49:23;;;;;;;74.85;39.38;;;51.20;2227.20;;;;;;5032274;28;20450;-74
2022/01/26 05:51:50;;;;;;;65.30;37.45;;;51.20;2227.20;;;;;;5031988;28;20033;-74
2022/01/26 05:54:16;;;;;;;66.95;36.60;;;51.20;2227.20;;;;;;5032107;28;20386;-74
2022/01/26 05:56:44;;;;;;;83.35;42.60;;;51.20;2227.20;;;;;;5033214;28;20495;-74
2022/01/26 05:59:10;;;;;;;106.30;55.70;;;51.20;2227.20;;;;;;5033527;28;20029;-74
2022/01/26 06:01:36;;;;;;;95.05;52.50;;;51.20;2227.20;;;;;;5031773;28;20036;-74
2022/01/26 06:04:03;;;;;;;67.78;38.60;;;51.20;2227.20;;;;;;5031627;28;20025;-74
2022/01/26 06:06:28;;;;;;;69.25;39.65;;;51.20;2227.20;;;;;;5031799;28;20052;-75
2022/01/26 06:08:54;;;;;;;59.72;34.00;;;51.20;2227.20;;;;;;5027391;28;20489;-73
2022/01/26 06:11:20;;;;;;;54.70;34.35;;;51.20;2227.20;;;;;;5033260;28;20034;-73
2022/01/26 06:13:46;;;;;;;64.05;37.20;;;51.30;2227.20;;;;;;5031373;28;20025;-75
2022/01/26 06:16:13;;;;;;;71.65;40.67;;;51.20;2227.20;;;;;;5031827;28;20021;-74
2022/01/26 06:18:39;;;;;;;74.28;44.63;;;51.20;2227.20;;;;;;5032854;28;20029;-74
2022/01/26 06:21:04;;;;;;;71.45;41.38;;;51.20;2227.20;;;;;;5031857;28;20148;-72
2022/01/26 06:23:30;;;;;;;85.25;44.63;;;51.30;2227.20;;;;;;5031190;28;20033;-73
2022/01/26 06:25:57;;;;;;;82.38;46.35;;;51.30;2227.20;;;;;;5032977;28;20036;-73
2022/01/26 06:28:26;;;;;;;82.80;45.00;;;51.40;2227.20;;;;;;5031104;28;20025;-74
2022/01/26 06:30:58;;;;;;;82.60;45.13;;;51.40;2227.20;;;;;;5031543;28;20477;-73
2022/01/26 06:33:25;;;;;;;78.53;43.13;;;51.40;2227.20;;;;;;5023766;28;20359;-73
2022/01/26 06:35:51;;;;;;;80.35;45.80;;;51.40;2227.20;;;;;;5012605;28;20500;-73
2022/01/26 06:38:17;;;;;;;79.38;43.30;;;51.60;2227.20;;;;;;5012868;28;20061;-73
2022/01/26 06:40:42;;;;;;;76.10;43.88;;;51.40;2227.20;;;;;;5013962;28;20121;-72
2022/01/26 06:43:14;;;;;;;71.60;40.60;;;51.40;2227.20;;;;;;5032532;28;20033;-73
2022/01/26 06:45:49;;;;;;;81.65;46.65;;;51.40;2227.20;;;;;;5032037;28;20022;-73
2022/01/26 06:50:41;;;;;;;71.97;40.30;;;51.50;2227.20;;;;;;5029861;28;20025;-74
2022/01/26 06:53:07;;;;;;;64.82;38.97;;;51.40;2227.20;;;;;;5030869;28;20065;-73
2022/01/26 06:55:33;;;;;;;69.13;39.58;;;51.40;2227.20;;;;;;5031304;28;20768;-73
2022/01/26 06:57:59;;;;;;;66.75;39.22;;;51.50;2227.20;;;;;;5030935;28;20025;-73
2022/01/26 07:00:25;;;;;;;63.90;38.63;;;51.60;2227.20;;;;;;5032184;28;20503;-73
2022/01/26 07:02:52;;;;;;;64.40;38.25;;;51.70;2227.20;;;;;;5032117;28;20388;-73
2022/01/26 07:05:18;;;;;;;85.47;48.88;;;51.70;2227.20;;;;;;5031814;28;20045;-73
2022/01/26 07:07:43;;;;;;;76.75;41.75;;;51.60;2227.20;;;;;;5030681;28;20127;-74
2022/01/26 07:10:09;;;;;;;86.32;42.15;;;51.70;2227.20;;;;;;5031151;28;20395;-73
2022/01/26 07:12:35;;;;;;;67.75;41.72;;;51.70;2227.20;;;;;;5030278;28;20484;-73
2022/01/26 07:21:22;;;;;;;64.50;38.80;;;51.80;2227.20;;;;;;5031752;28;20037;-73
2022/01/26 07:23:16;;;;;;;57.90;36.00;;;51.80;2227.20;;;;;;5031138;28;20496;-73
2022/01/26 07:25:42;;;;;;;73.20;38.60;;;51.70;2227.20;;;;;;5030852;28;20051;-73
2022/01/26 07:28:07;;;;;;;72.63;42.08;;;51.80;2227.20;;;;;;5063187;28;20037;-73
2022/01/26 07:30:37;;;;;;;67.95;40.45;;;51.80;2227.20;;;;;;5060590;28;20034;-74
2022/01/26 07:33:04;;;;;;;61.80;38.92;;;51.80;2227.20;;;;;;5019524;28;20034;-73
2022/01/26 07:35:31;;;;;;;66.40;38.33;;;51.80;2227.20;;;;;;5031798;28;20026;-73
2022/01/26 07:37:58;;;;;;;63.58;38.28;;;51.80;2227.20;;;;;;5047178;28;20424;-73
2022/01/26 07:40:25;;;;;;;79.22;45.75;;;51.80;2227.20;;;;;;5063696;28;20090;-73
2022/01/26 07:42:51;;;;;;;56.58;35.33;;;51.90;2227.20;;;;;;5038785;28;20476;-74
2022/01/26 07:45:17;;;;;;;59.15;35.60;;;51.90;2227.20;;;;;;5034256;28;20151;-74
2022/01/26 07:47:43;;;;;;;66.25;38.45;;;51.90;2227.20;;;;;;5034453;28;20456;-73
2022/01/26 07:50:13;;;;;;;61.33;37.65;;;52.00;2227.20;;;;;;5035225;28;20117;-74
2022/01/26 07:52:41;;;;;;;57.85;36.00;;;52.00;2227.20;;;;;;5034050;28;20049;-74
2022/01/26 07:55:09;;;;;;;59.08;36.58;;;52.00;2227.20;;;;;;5034366;28;20033;-74
2022/01/26 07:57:35;;;;;;;62.58;38.08;;;52.00;2227.20;;;;;;5035154;28;20036;-74
2022/01/26 08:00:01;;;;;;;59.30;36.30;;;52.00;2227.20;;;;;;5034292;28;20033;-73
2022/01/26 08:02:26;;;;;;;60.67;35.47;;;52.00;2227.20;;;;;;5033141;28;20057;-74
2022/01/26 08:04:52;;;;;;;55.15;33.92;;;52.00;2227.20;;;;;;5035172;28;20068;-73
2022/01/26 08:07:18;;;;;;;57.20;36.80;;;52.00;2227.20;;;;;;5033523;28;20029;-74
2022/01/26 08:09:44;;;;;;;61.30;39.17;;;52.10;2227.20;;;;;;5033766;28;20053;-73
2022/01/26 08:12:17;;;;;;;57.50;36.70;;;76.80;2227.20;;;;;;5034514;28;20060;-73
2022/01/26 08:14:44;;;;;;;66.07;38.75;;;76.80;2227.20;;;;;;5034909;28;20380;-74
2022/01/26 08:17:10;;;;;;;60.65;37.15;;;76.90;2227.20;;;;;;5033816;28;20102;-73
2022/01/26 08:19:37;;;;;;;66.20;38.03;;;76.90;2227.20;;;;;;5033035;28;20037;-73
2022/01/26 08:22:03;;;;;;;64.88;39.00;;;76.90;2227.20;;;;;;5033602;28;20025;-73
2022/01/26 08:24:30;;;;;;;56.03;33.88;;;77.00;2227.20;;;;;;5031503;28;20037;-73
2022/01/26 08:27:01;;;;;;;57.85;35.65;;;76.90;2227.20;;;;;;5035079;28;20061;-73
2022/01/26 08:29:29;;;;;;;63.30;36.97;;;77.00;2227.20;;;;;;5032983;28;20030;-73
2022/01/26 08:31:54;;;;;;;64.75;37.45;;;77.00;2227.20;;;;;;5034700;28;20024;-73
2022/01/26 08:34:20;;;;;;;58.45;35.33;;;77.10;2227.20;;;;;;5034188;28;20030;-73
2022/01/26 08:36:46;;;;;;;63.58;35.70;;;77.00;2227.20;;;;;;5033903;28;20025;-73
2022/01/26 08:39:12;;;;;;;59.45;35.83;;;76.90;2227.20;;;;;;5031295;28;20034;-73
2022/01/26 08:41:38;;;;;;;57.38;34.00;;;76.90;2227.20;;;;;;5034061;28;20034;-73
2022/01/26 08:44:04;;;;;;;57.42;35.40;;;77.00;2227.20;;;;;;5034293;28;20021;-73
2022/01/26 08:46:30;;;;;;;59.20;34.45;;;77.10;2227.20;;;;;;5033929;28;20894;-73
2022/01/26 08:48:56;;;;;;;60.95;36.85;;;77.20;2227.20;;;;;;5033368;28;20033;-74
2022/01/26 08:51:22;;;;;;;65.15;36.15;;;77.30;2227.20;;;;;;5026297;28;20029;-73
2022/01/26 08:53:47;;;;;;;55.90;34.50;;;77.20;2227.20;;;;;;5033801;28;20408;-74
2022/01/26 08:56:16;;;;;;;59.05;33.55;;;77.30;2227.20;;;;;;5030967;28;20099;-74
2022/01/26 08:58:42;;;;;;;57.63;33.33;;;77.30;2227.20;;;;;;5034453;28;20064;-74
2022/01/26 09:01:08;;;;;;;55.25;32.20;;;77.20;2227.20;;;;;;5024392;28;20045;-76
2022/01/26 09:03:39;;;;;;;55.63;31.92;;;77.20;2227.20;;;;;;5024943;28;20477;-74
2022/01/26 09:06:06;;;;;;;51.92;33.22;;;77.20;2227.20;;;;;;5033163;28;20132;-73
2022/01/26 09:08:32;;;;;;;54.00;32.50;;;77.30;2227.20;;;;;;5032648;28;20041;-73
2022/01/26 09:11:02;;;;;;;51.92;33.33;;;77.20;2227.20;;;;;;5030888;28;20071;-74
2022/01/26 09:13:34;;;;;;;61.90;35.30;;;77.30;2227.20;;;;;;5033021;28;20079;-74
2022/01/26 09:16:06;;;;;;;62.28;35.58;;;77.30;2227.20;;;;;;5031523;28;20057;-74
2022/01/26 09:18:45;;;;;;;59.53;34.53;;;77.40;2227.20;;;;;;5031296;28;20040;-73
2022/01/26 09:21:12;;;;;;;63.97;36.88;;;77.30;2227.20;;;;;;5030594;28;20550;-74
2022/01/26 09:23:37;;;;;;;60.65;37.83;;;77.40;2227.20;;;;;;5033331;28;20442;-74
2022/01/26 09:26:04;;;;;;;59.55;35.45;;;77.50;2227.20;;;;;;5031914;28;20026;-72
2022/01/26 09:28:30;;;;;;;59.85;35.03;;;77.40;2227.20;;;;;;5033295;28;20639;-73
2022/01/26 09:30:55;;;;;;;56.65;33.85;;;77.70;2227.20;;;;;;5032887;28;20045;-75
2022/01/26 09:33:21;;;;;;;59.22;34.58;;;77.70;2227.20;;;;;;5031632;28;20426;-75
2022/01/26 09:35:47;;;;;;;63.42;37.15;;;77.70;2227.20;;;;;;5035539;28;20017;-73
2022/01/26 09:38:13;;;;;;;52.80;31.92;;;77.60;2227.20;;;;;;5032098;28;20049;-75
2022/01/26 09:40:39;;;;;;;53.88;33.65;;;77.50;2227.20;;;;;;5029532;28;20071;-75
2022/01/26 09:43:05;;;;;;;57.83;36.08;;;77.40;2227.20;;;;;;5029081;28;20025;-74
2022/01/26 09:45:34;;;;;;;60.05;33.00;;;77.50;2227.20;;;;;;5032483;28;20130;-74
2022/01/26 09:48:02;;;;;;;62.67;37.10;;;77.50;2227.20;;;;;;5032532;28;20030;-74
2022/01/26 09:50:28;;;;;;;56.75;30.65;;;77.60;2227.20;;;;;;5029625;28;20468;-74
2022/01/26 09:52:55;;;;;;;52.40;32.22;;;102.40;2227.20;;;;;;5030607;28;20022;-74
2022/01/26 09:55:22;;;;;;;51.53;32.03;;;77.70;2227.20;;;;;;5030984;28;20032;-74
2022/01/26 09:57:48;;;;;;;58.20;34.03;;;102.40;2227.20;;;;;;5030834;28;20049;-75
2022/01/26 10:00:15;;;;;;;61.30;36.40;;;102.40;2227.20;;;;;;5032749;28;20025;-76
2022/01/26 10:02:44;;;;;;;58.28;34.42;;;102.50;2227.20;;;;;;5034253;28;20436;-73
2022/01/26 10:05:16;;;;;;;61.95;34.72;;;102.60;2227.20;;;;;;5032507;28;20536;-74
2022/01/26 10:08:29;;;;;;;57.15;33.58;;;102.60;2227.20;;;;;;5029782;28;20051;-74
2022/01/26 10:16:05;;;;;;;52.80;32.70;;;102.40;2227.20;;;;;;5035325;28;20028;-73
2022/01/26 10:18:32;;;;;;;56.42;33.88;;;77.70;2227.20;;;;;;5031242;28;20025;-74
2022/01/26 10:20:59;;;;;;;62.00;32.05;;;77.70;2227.20;;;;;;5031894;28;20021;-73
2022/01/26 10:23:27;;;;;;;56.47;31.95;;;77.70;2227.20;;;;;;5034444;28;20034;-73
2022/01/26 10:26:13;;;;;;;56.88;32.53;;;102.40;2227.20;;;;;;5023448;28;20048;-73
2022/01/26 10:28:47;;;;;;;60.72;35.85;;;102.50;2227.20;;;;;;5030335;28;20035;-74
2022/01/26 10:31:34;;;;;;;59.00;31.85;;;102.60;2227.20;;;;;;5031979;28;20052;-73
2022/01/26 10:34:01;;;;;;;;;;;102.80;2227.20;;;;;;5030727;28;20061;-74
2022/01/26 10:36:45;;;;;;;;;;;102.90;2227.20;;;;;;5031966;28;19905;-74
2022/01/26 10:39:15;;;;;;;57.92;30.88;;;103.00;2227.20;;;;;;5064013;28;19917;-75
2022/01/26 10:41:44;;;;;;;52.08;34.05;;;102.90;2227.20;;;;;;5031346;28;20495;-74
2022/01/26 10:44:10;;;;;;;54.42;31.75;;;103.00;2227.20;;;;;;5030736;28;20038;-74
2022/01/26 10:46:41;;;;;;;56.22;34.33;;;102.80;2227.20;;;;;;5031579;28;20377;-74
2022/01/26 10:54:37;;;;;;;62.15;35.10;;;102.80;2227.20;;;;;;5023232;28;20022;-74
2022/01/26 10:57:09;;;;;;;52.85;34.17;;;102.80;2227.20;;;;;;5032442;28;20068;-74
2022/01/26 10:59:38;;;;;;;57.20;34.75;;;102.90;2227.20;;;;;;5031255;28;20028;-74
2022/01/26 11:02:05;;;;;;;66.90;38.28;;;102.90;2227.20;;;;;;5030374;28;20029;-74
2022/01/26 11:04:42;;;;;;;60.67;34.15;;;103.20;2227.20;;;;;;5028683;28;20076;-74
2022/01/26 11:07:10;;;;;;;64.13;40.33;;;103.30;2227.20;;;;;;5029025;28;20396;-74
2022/01/26 11:09:39;;;;;;;64.82;35.72;;;103.00;2227.20;;;;;;5030866;28;20077;-74
2022/01/26 11:12:10;;;;;;;70.07;43.42;;;103.00;2227.20;;;;;;5033301;28;20037;-75
2022/01/26 11:14:44;;;;;;;63.92;38.42;;;102.80;2227.20;;;;;;5029144;28;20366;-74
2022/01/26 11:17:37;;;;;;;69.00;40.78;;;102.80;2227.20;;;;;;5018827;28;20022;-74
2022/01/26 11:20:30;;;;;;;62.42;39.50;;;102.90;2227.20;;;;;;5028941;28;20033;-75
2022/01/26 11:22:58;;;;;;;59.50;36.10;;;103.10;2227.20;;;;;;5027837;28;20486;-74
2022/01/26 11:25:27;;;;;;;57.75;34.10;;;103.00;2227.20;;;;;;5029530;28;20029;-74
2022/01/26 11:27:54;;;;;;;56.35;33.67;;;103.00;2227.20;;;;;;5029991;28;20038;-74
2022/01/26 11:30:26;;;;;;;54.65;32.17;;;103.10;2227.20;;;;;;5030591;28;20107;-75
2022/01/26 11:32:59;;;;;;;59.92;35.88;;;103.10;2227.20;;;;;;5031626;28;20485;-74
2022/01/26 11:35:27;;;;;;;63.08;35.67;;;103.00;2227.20;;;;;;5028596;28;20030;-74
2022/01/26 11:46:34;;;;;;;56.90;37.33;;;103.20;2227.20;;;;;;5031446;28;20056;-72
2022/01/26 11:49:06;;;;;;;68.90;36.97;;;128.00;2252.80;;;;;;5030678;28;20059;-75
2022/01/26 11:51:42;;;;;;;58.80;35.78;;;128.00;2252.80;;;;;;5027798;28;20041;-74
2022/01/26 11:54:26;;;;;;;62.00;37.15;;;128.00;2252.80;;;;;;5030974;28;20033;-74
2022/01/26 11:56:56;;;;;;;67.93;38.70;;;103.20;2227.20;;;;;;5030557;28;20033;-75
2022/01/26 11:59:24;;;;;;;71.63;40.55;;;103.20;2227.20;;;;;;5027975;28;20037;-74
2022/01/26 12:01:58;;;;;;;62.17;37.70;;;103.30;2227.20;;;;;;5029564;28;20037;-74
2022/01/26 12:04:25;;;;;;;65.50;38.45;;;103.30;2227.20;;;;;;5030116;28;20026;-74
2022/01/26 12:06:58;;;;;;;64.10;35.97;;;103.20;2227.20;;;;;;5031199;28;20041;-74
2022/01/26 12:09:24;;;;;;;67.43;38.72;;;103.10;2227.20;;;;;;5029884;28;20429;-75
2022/01/26 12:11:55;;;;;;;59.08;35.08;;;103.00;2227.20;;;;;;5029684;28;20042;-75
2022/01/26 12:14:22;;;;;;;58.63;35.20;;;103.10;2227.20;;;;;;5029487;28;20025;-74
2022/01/26 12:16:52;;;;;;;60.47;38.25;;;103.00;2227.20;;;;;;5029841;28;20025;-74
2022/01/26 12:35:55;;;;;;;64.00;37.65;;;103.10;2227.20;;;;;;5028747;28;20025;-75
2022/01/26 12:38:33;;;;;;;;;;;103.30;2227.20;;;;;;5022805;28;20021;-75
2022/01/26 12:43:37;;;;;;;55.72;34.95;;;103.20;2227.20;;;;;;5031373;28;20384;-75
2022/01/26 12:46:06;;;;;;;74.45;40.05;;;103.10;2227.20;;;;;;5027117;28;20064;-75
2022/01/26 12:48:34;;;;;;;56.97;34.17;;;103.20;2227.20;;;;;;5028199;28;20486;-75
2022/01/26 12:51:03;;;;;;;59.58;34.30;;;103.30;2227.20;;;;;;5032284;28;20022;-74
2022/01/26 12:53:32;;;;;;;62.05;37.03;;;103.30;2227.20;;;;;;5028984;28;20056;-74
2022/01/26 12:56:07;;;;;;;57.55;35.20;;;103.10;2227.20;;;;;;5028796;28;20017;-75
2022/01/26 12:58:35;;;;;;;64.13;37.10;;;102.90;2227.20;;;;;;5027111;28;20029;-76
2022/01/26 13:01:15;;;;;;;55.17;35.85;;;102.80;2227.20;;;;;;5033975;28;20021;-75
2022/01/26 13:03:41;;;;;;;56.72;36.03;;;102.80;2227.20;;;;;;5031894;28;20028;-76
2022/01/26 13:06:21;;;;;;;62.38;36.15;;;102.80;2227.20;;;;;;5033104;28;20484;-76
2022/01/26 13:08:52;;;;;;;61.08;36.35;;;102.70;2227.20;;;;;;5033812;28;20049;-76
2022/01/26 13:11:25;;;;;;;54.53;31.20;;;102.60;2227.20;;;;;;5032031;28;20021;-75
2022/01/26 13:14:27;;;;;;;57.05;35.85;;;102.70;2227.20;;;;;;5033492;28;20469;-76
2022/01/26 13:28:15;;;;;;;71.18;40.72;;;102.80;2227.20;;;;;;5025373;28;20654;-75
2022/01/26 13:55:22;;;;;;;80.10;49.03;;;102.40;2227.20;;;;;;5033741;28;20465;-75
2022/01/26 13:58:19;;;;;;;75.00;44.63;;;102.40;2227.20;;;;;;5032621;28;20107;-75
2022/01/26 14:00:55;;;;;;;76.32;41.47;;;77.70;2227.20;;;;;;5031060;28;20021;-75
2022/01/26 14:03:24;;;;;;;76.80;41.97;;;77.70;2227.20;;;;;;5030164;28;20492;-75
2022/01/26 14:05:49;;;;;;;75.25;40.88;;;77.70;2227.20;;;;;;5032480;28;20040;-75
2022/01/26 14:08:15;;;;;;;75.00;41.08;;;77.70;2227.20;;;;;;5030636;28;20496;-75
2022/01/26 14:10:44;;;;;;;54.95;33.90;;;77.60;2227.20;;;;;;5032657;28;20037;-74
2022/01/26 14:13:10;;;;;;;63.25;38.40;;;77.60;2227.20;;;;;;5031745;28;20041;-75
2022/01/26 14:15:47;;;;;;;65.85;38.97;;;77.60;2227.20;;;;;;5031451;28;20039;-75
2022/01/26 14:20:55;;;;;;;66.55;42.45;;;77.50;2227.20;;;;;;5032462;28;20124;-75
2022/01/26 14:26:08;;;;;;;77.75;44.85;;;77.40;2227.20;;;;;;5030470;28;20087;-75
2022/01/26 14:28:36;;;;;;;76.18;43.80;;;77.50;2227.20;;;;;;5028437;28;20017;-75
2022/01/26 14:31:26;;;;;;;79.75;43.75;;;77.50;2227.20;;;;;;5030157;28;20036;-75
2022/01/26 14:34:22;;;;;;;68.85;39.75;;;77.50;2227.20;;;;;;5031365;28;20028;-75
2022/01/26 14:36:49;;;;;;;72.50;41.55;;;77.50;2227.20;;;;;;5032175;28;20935;-75
2022/01/26 15:19:22;;;;;;;81.28;42.78;;;77.10;2227.20;;;;;;5029570;28;20078;-74
2022/01/26 15:29:52;;;;;;;73.35;42.10;;;77.10;2227.20;;;;;;5031605;28;20023;-74
2022/01/26 15:30:47;;;;;;;72.82;41.85;;;77.00;2227.20;;;;;;5031817;28;20522;-75
2022/01/26 15:49:42;;;;;;;75.25;42.90;;;77.00;2227.20;;;;;;5012288;28;20080;-73
2022/01/26 15:57:57;;;;;;;78.70;43.97;;;77.00;2227.20;;;;;;5026333;28;20052;-76
2022/01/26 16:06:10;;;;;;;78.05;44.92;;;77.00;2227.20;;;;;;5027468;28;20040;-76
2022/01/26 16:35:50;;;;;;;100.90;55.17;;;77.00;2227.20;;;;;;5052989;28;20072;-76
2022/01/26 18:32:49;;;;;;;94.65;50.80;;;77.00;2227.20;;;;;;5061535;28;20082;-75
2022/01/26 18:49:13;;;;;;;71.80;41.70;;;77.00;2227.20;;;;;;5000885;28;20030;-76
2022/01/26 18:51:53;;;;;;;64.32;38.63;;;77.10;2227.20;;;;;;5009088;28;20025;-75
2022/01/26 18:54:28;;;;;;;70.50;41.22;;;77.10;2227.20;;;;;;5004646;28;20563;-75
2022/01/26 18:56:55;;;;;;;61.25;36.55;;;77.10;2227.20;;;;;;5002202;28;20034;-76
2022/01/26 18:59:22;;;;;;;117.20;63.72;;;77.10;2227.20;;;;;;4997071;28;20125;-75
2022/01/26 19:01:51;;;;;;;76.15;40.60;;;77.10;2227.20;;;;;;4999832;28;20033;-74
2022/01/26 19:04:23;;;;;;;89.28;49.42;;;77.20;2227.20;;;;;;5023173;28;20034;-75
2022/01/26 19:06:51;;;;;;;66.15;41.00;;;77.10;2227.20;;;;;;4998571;28;20027;-74